Time;durP1;ratioP1;P1;durP2;ratioP2;P2;SDS_P1;SDS_P2;PMS_P1;PMS_P2;Temp;Humidity;BMP_temperature;BMP_pressure;BME280_temperature;BME280_humidity;BME280_pressure;Samples;Min_cycle;Max_cycle;Signal;HPM_P1;HPM_P2
2022/12/01 00:00:52;;;;;;;;;;;;;;;-12.42;80.07;102419.41;6174887;23;19920;-68
2022/12/01 00:03:17;;;;;;;;;;;;;;;-12.43;79.89;102411.53;6175850;23;19927;-67
2022/12/01 00:05:43;;;;;;;;;;;;;;;-12.45;79.64;102416.88;6175324;23;19924;-68
2022/12/01 00:08:10;;;;;;;;;;;;;;;-12.46;79.60;102422.22;6175005;23;19920;-68
2022/12/01 00:10:36;;;;;;;;;;;;;;;-12.47;79.76;102407.31;6147350;23;19924;-68
2022/12/01 00:13:03;;;;;;;;;;;;;;;-12.47;79.53;102408.19;6172983;23;20376;-68
2022/12/01 00:15:29;;;;;;;;;;;;;;;-12.49;79.77;102409.16;6185363;23;19920;-68
2022/12/01 00:17:56;;;;;;;;;;;;;;;-12.53;79.69;102405.75;6148880;23;20264;-68
2022/12/01 00:20:22;;;;;;;;;;;;;;;-12.54;79.44;102404.91;6146366;23;19929;-68
2022/12/01 00:22:48;;;;;;;;;;;;;;;-12.53;79.76;102405.75;6158150;23;20319;-68
2022/12/01 00:25:16;;;;;;;;;;;;;;;-12.55;79.82;102407.59;6173252;23;19920;-67
2022/12/01 00:27:41;;;;;;;;;;;;;;;-12.55;79.88;102404.97;6182976;23;19924;-66
2022/12/01 00:30:09;;;;;;;;;;;;;;;-12.57;79.81;102409.44;6182424;23;20249;-67
2022/12/01 00:32:35;;;;;;;;;;;;;;;-12.60;79.90;102409.56;6122516;23;19966;-66
2022/12/01 00:35:01;;;;;;;;;;;;;;;-12.62;79.75;102404.34;6121827;23;19919;-66
2022/12/01 00:37:28;;;;;;;;;;;;;;;-12.62;79.71;102404.34;6171907;23;19921;-68
2022/12/01 00:39:54;;;;;;;;;;;;;;;-12.63;79.83;102409.69;6184577;23;20336;-68
2022/12/01 00:42:21;;;;;;;;;;;;;;;-12.64;79.62;102415.84;6174342;23;19927;-68
2022/12/01 00:44:47;;;;;;;;;;;;;;;-12.66;79.68;102409.78;6182219;23;19927;-68
2022/12/01 00:47:13;;;;;;;;;;;;;;;-12.66;79.71;102405.38;6181754;23;19924;-68
2022/12/01 00:49:38;;;;;;;;;;;;;;;-12.65;79.70;102399.19;6146769;23;20287;-68
2022/12/01 00:52:04;;;;;;;;;;;;;;;-12.65;79.44;102403.59;6182400;23;19920;-68
2022/12/01 00:54:31;;;;;;;;;;;;;;;-12.67;79.54;102398.41;6174252;23;20564;-68
2022/12/01 00:56:56;;;;;;;;;;;;;;;-12.68;79.35;102401.97;6172663;23;19920;-68
2022/12/01 00:59:24;;;;;;;;;;;;;;;-12.66;79.67;102400.13;6174194;23;19926;-68
2022/12/01 01:01:49;;;;;;;;;;;;;;;-12.66;79.43;102397.47;6149078;23;19920;-68
2022/12/01 01:04:17;;;;;;;;;;;;;;;-12.68;79.26;102401.97;6124281;23;19978;-68
2022/12/01 01:06:42;;;;;;;;;;;;;;;-12.66;79.20;102409.78;6148482;23;20287;-67
2022/12/01 01:09:09;;;;;;;;;;;;;;;-12.69;79.04;102411.63;6185053;23;19944;-68
2022/12/01 01:11:34;;;;;;;;;;;;;;;-12.70;79.26;102406.44;6195817;23;19978;-67
2022/12/01 01:14:00;;;;;;;;;;;;;;;-12.71;79.22;102408.19;6122227;23;19943;-68
2022/12/01 01:16:27;;;;;;;;;;;;;;;-12.74;79.02;102410.09;6174219;23;19920;-68
2022/12/01 01:18:53;;;;;;;;;;;;;;;-12.75;79.02;102400.47;6172133;23;19954;-68
2022/12/01 01:21:20;;;;;;;;;;;;;;;-12.76;79.14;102410.16;6146187;23;19920;-68
2022/12/01 01:23:46;;;;;;;;;;;;;;;-12.76;78.74;102401.38;6173312;23;19921;-68
2022/12/01 01:26:13;;;;;;;;;;;;;;;-12.77;78.90;102402.28;6123025;23;20375;-68
2022/12/01 01:28:42;;;;;;;;;;;;;;;-12.79;78.77;102397.09;6184257;23;19920;-67
2022/12/01 01:31:08;;;;;;;;;;;;;;;-12.79;78.71;102401.50;6172681;23;19923;-67
2022/12/01 01:33:35;;;;;;;;;;;;;;;-12.79;78.51;102396.22;6145935;23;19924;-68
2022/12/01 01:36:02;;;;;;;;;;;;;;;-12.80;78.92;102395.34;6148048;23;19982;-69
2022/12/01 01:38:29;;;;;;;;;;;;;;;-12.81;78.74;102401.53;6173733;23;19920;-68
2022/12/01 01:40:54;;;;;;;;;;;;;;;-12.82;78.39;102398.06;6182283;23;19987;-68
2022/12/01 01:43:35;;;;;;;;;;;;;;;-12.84;78.73;102393.75;6182889;23;19920;-68
2022/12/01 01:46:01;;;;;;;;;;;;;;;-12.85;78.77;102395.56;6171816;23;20474;-68
2022/12/01 01:48:26;;;;;;;;;;;;;;;-12.84;78.67;102393.75;6171529;23;19942;-68
2022/12/01 01:50:54;;;;;;;;;;;;;;;-12.86;78.50;102385.06;6184938;23;20260;-68
2022/12/01 01:53:20;;;;;;;;;;;;;;;-12.87;78.42;102388.63;6157466;23;20401;-68
2022/12/01 01:55:46;;;;;;;;;;;;;;;-12.88;78.60;102387.75;6184263;23;20210;-68
2022/12/01 01:58:11;;;;;;;;;;;;;;;-12.88;78.58;102386.91;6183254;23;19954;-68
2022/12/01 02:00:38;;;;;;;;;;;;;;;-13.04;78.91;102363.78;6172639;23;19920;-68
2022/12/01 02:03:04;;;;;;;;;;;;;;;-12.83;78.72;102392.84;6182512;23;19924;-68
2022/12/01 02:05:31;;;;;;;;;;;;;;;-12.79;78.66;102401.50;6147057;23;20245;-68
2022/12/01 02:07:59;;;;;;;;;;;;;;;-12.77;78.79;102397.91;6181954;23;19944;-68
2022/12/01 02:10:30;;;;;;;;;;;;;;;-12.77;78.74;102399.66;6182112;23;19920;-68
2022/12/01 02:13:01;;;;;;;;;;;;;;;-12.77;78.31;102399.66;6145328;23;20090;-68
2022/12/01 02:15:32;;;;;;;;;;;;;;;-12.76;78.52;102404.88;6173043;23;20345;-68
2022/12/01 02:18:02;;;;;;;;;;;;;;;-12.69;78.29;102400.25;6171468;23;19920;-68
2022/12/01 02:20:46;;;;;;;;;;;;;;;-12.69;78.08;102395.81;6182400;23;19931;-68
2022/12/01 02:23:24;;;;;;;;;;;;;;;-12.71;77.98;102395.03;6138938;23;19947;-68
2022/12/01 02:26:00;;;;;;;;;;;;;;;-12.73;77.95;102390.72;6206149;23;19974;-68
2022/12/01 02:28:38;;;;;;;;;;;;;;;-12.76;78.12;102389.06;6145458;23;19920;-68
2022/12/01 02:31:07;;;;;;;;;;;;;;;-12.78;78.10;102398.81;6174396;23;19924;-68
2022/12/01 02:33:35;;;;;;;;;;;;;;;-12.77;77.91;102397.91;6172200;23;19951;-67
2022/12/01 02:36:07;;;;;;;;;;;;;;;-12.79;78.02;102394.47;6182027;23;19927;-68
2022/12/01 02:38:36;;;;;;;;;;;;;;;-12.76;78.06;102398.75;6145633;23;19920;-68
2022/12/01 02:41:06;;;;;;;;;;;;;;;-12.73;77.89;102393.34;6158505;23;19920;-68
2022/12/01 02:43:35;;;;;;;;;;;;;;;-12.77;77.75;102395.25;6171322;23;19966;-67
2022/12/01 02:46:05;;;;;;;;;;;;;;;-12.80;77.88;102397.16;6182972;23;19947;-68
2022/12/01 02:48:33;;;;;;;;;;;;;;;-12.85;77.37;102395.56;6146953;23;19920;-68
2022/12/01 02:51:02;;;;;;;;;;;;;;;-12.87;77.64;102402.66;6196883;23;19919;-66
2022/12/01 02:53:28;;;;;;;;;;;;;;;-12.89;77.48;102393.94;6184509;23;19920;-66
2022/12/01 02:55:54;;;;;;;;;;;;;;;-12.85;77.55;102392.94;6185040;23;19991;-66
2022/12/01 02:58:20;;;;;;;;;;;;;;;-12.82;77.54;102387.53;6175465;23;19920;-66
2022/12/01 03:00:54;;;;;;;;;;;;;;;-12.84;77.66;102386.72;6175898;23;19920;-66
2022/12/01 03:03:29;;;;;;;;;;;;;;;-12.83;77.77;102387.56;6147961;23;19982;-66
2022/12/01 03:06:02;;;;;;;;;;;;;;;-12.80;77.70;102384.81;6148945;23;20050;-66
2022/12/01 03:08:32;;;;;;;;;;;;;;;-12.85;76.97;102382.38;6175228;23;19975;-66
2022/12/01 03:10:59;;;;;;;;;;;;;;;-12.88;77.25;102384.25;6206041;23;20360;-66
2022/12/01 03:13:31;;;;;;;;;;;;;;;-12.89;76.92;102385.19;6180561;23;20018;-67
2022/12/01 03:15:59;;;;;;;;;;;;;;;-12.93;76.94;102394.97;6151857;23;19982;-66
2022/12/01 03:18:30;;;;;;;;;;;;;;;-12.95;77.19;102378.38;6149237;23;20275;-67
2022/12/01 03:21:01;;;;;;;;;;;;;;;-12.97;77.10;102380.22;6186987;23;19920;-66
2022/12/01 03:23:29;;;;;;;;;;;;;;;-12.98;77.26;102370.59;6174451;23;19979;-66
2022/12/01 03:25:55;;;;;;;;;;;;;;;-12.99;77.10;102377.63;6175907;23;19924;-66
2022/12/01 03:28:22;;;;;;;;;;;;;;;-12.99;77.07;102380.25;6183894;23;19927;-66
2022/12/01 03:30:51;;;;;;;;;;;;;;;-12.96;76.99;102374.84;6185333;23;19920;-66
2022/12/01 03:33:20;;;;;;;;;;;;;;;-12.93;77.08;102370.41;6188117;23;19927;-66
2022/12/01 03:35:48;;;;;;;;;;;;;;;-12.91;77.29;102379.13;6185055;23;20344;-66
2022/12/01 03:38:18;;;;;;;;;;;;;;;-12.92;76.93;102372.97;6146419;23;20267;-67
2022/12/01 03:40:46;;;;;;;;;;;;;;;-12.91;77.02;102374.69;6183838;23;19920;-66
2022/12/01 03:43:16;;;;;;;;;;;;;;;-12.91;76.99;102371.22;6173270;23;19924;-66
2022/12/01 03:45:46;;;;;;;;;;;;;;;-12.94;76.99;102374.81;6184963;23;20329;-68
2022/12/01 03:48:12;;;;;;;;;;;;;;;-12.92;76.68;102374.75;6175343;23;19931;-68
2022/12/01 03:50:43;;;;;;;;;;;;;;;-12.92;76.75;102377.41;6181425;23;20344;-68
2022/12/01 03:53:10;;;;;;;;;;;;;;;-12.94;76.78;102376.59;6175221;23;20023;-68
2022/12/01 03:55:39;;;;;;;;;;;;;;;-12.93;76.76;102376.53;6182259;23;19927;-68
2022/12/01 03:58:07;;;;;;;;;;;;;;;-12.91;76.80;102372.06;6169093;23;19935;-68
2022/12/01 04:00:34;;;;;;;;;;;;;;;-12.89;76.91;102375.47;6184049;23;19959;-68
2022/12/01 04:03:02;;;;;;;;;;;;;;;-12.86;77.09;102382.44;6174939;23;19971;-68
2022/12/01 04:05:28;;;;;;;;;;;;;;;-12.81;76.98;102383.09;6149373;23;19942;-68
2022/12/01 04:07:54;;;;;;;;;;;;;;;-12.80;76.77;102376.06;6148706;23;19928;-68
2022/12/01 04:10:20;;;;;;;;;;;;;;;-12.79;76.67;102381.28;6125016;23;19955;-68
2022/12/01 04:12:47;;;;;;;;;;;;;;;-12.80;76.61;102392.72;6158351;23;19920;-67
2022/12/01 04:15:13;;;;;;;;;;;;;;;-12.85;76.61;102387.66;6185845;23;20380;-67
2022/12/01 04:17:42;;;;;;;;;;;;;;;-12.81;76.28;102391.00;6197506;23;19920;-66
2022/12/01 04:20:09;;;;;;;;;;;;;;;-12.83;76.33;102388.44;6186116;23;19982;-66
2022/12/01 04:22:35;;;;;;;;;;;;;;;-12.85;76.66;102394.69;6175245;23;19939;-66
2022/12/01 04:25:01;;;;;;;;;;;;;;;-12.83;76.70;102395.47;6182093;23;20248;-66
2022/12/01 04:27:26;;;;;;;;;;;;;;;-12.80;76.17;102376.06;6155899;23;19940;-66
2022/12/01 04:29:54;;;;;;;;;;;;;;;-12.74;76.82;102386.38;6148144;23;19931;-67
2022/12/01 04:32:19;;;;;;;;;;;;;;;-12.68;76.63;102386.16;6126306;23;19967;-66
2022/12/01 04:34:45;;;;;;;;;;;;;;;-12.63;76.10;102391.25;6185802;23;19920;-68
2022/12/01 04:37:11;;;;;;;;;;;;;;;-12.78;75.88;102369.81;6174173;23;19931;-68
2022/12/01 04:39:37;;;;;;;;;;;;;;;-12.63;76.10;102384.19;6182803;23;19920;-67
2022/12/01 04:42:03;;;;;;;;;;;;;;;-12.62;76.06;102388.53;6149099;23;20010;-67
2022/12/01 04:44:29;;;;;;;;;;;;;;;-12.63;75.99;102388.59;6159276;23;19920;-68
2022/12/01 04:46:56;;;;;;;;;;;;;;;-12.66;75.56;102383.44;6148132;23;19927;-68
2022/12/01 04:49:22;;;;;;;;;;;;;;;-12.94;75.41;102348.47;6184115;23;19927;-68
2022/12/01 04:51:48;;;;;;;;;;;;;;;-12.69;75.69;102389.69;6180593;23;19920;-68
2022/12/01 04:54:14;;;;;;;;;;;;;;;-12.70;75.70;102385.34;6174099;23;20382;-68
2022/12/01 04:56:39;;;;;;;;;;;;;;;-12.71;75.67;102394.19;6173063;23;20418;-67
2022/12/01 04:59:05;;;;;;;;;;;;;;;-12.72;75.54;102395.06;6182958;23;19951;-68
2022/12/01 05:01:31;;;;;;;;;;;;;;;-12.72;75.61;102395.06;6156391;23;19970;-68
2022/12/01 05:03:58;;;;;;;;;;;;;;;-12.74;75.43;102384.59;6146384;23;19920;-68
2022/12/01 05:06:25;;;;;;;;;;;;;;;-12.72;75.53;102393.31;6148384;23;19924;-67
2022/12/01 05:08:53;;;;;;;;;;;;;;;-12.72;75.32;102388.03;6182275;23;19951;-68
2022/12/01 05:11:19;;;;;;;;;;;;;;;-12.71;75.53;102389.75;6183328;23;20092;-67
2022/12/01 05:13:46;;;;;;;;;;;;;;;-12.70;75.16;102394.09;6208821;23;19931;-67
2022/12/01 05:16:13;;;;;;;;;;;;;;;-12.68;75.26;102386.16;6151931;23;19920;-68
2022/12/01 05:18:39;;;;;;;;;;;;;;;-12.62;75.40;102387.69;6184466;23;19927;-67
2022/12/01 05:21:07;;;;;;;;;;;;;;;-12.55;75.44;102390.03;6177799;23;19929;-68
2022/12/01 05:23:34;;;;;;;;;;;;;;;-12.49;75.03;102403.88;6168295;23;19919;-69
2022/12/01 05:26:00;;;;;;;;;;;;;;;-12.45;74.89;102398.44;6142539;23;19926;-69
2022/12/01 05:28:26;;;;;;;;;;;;;;;-12.45;74.98;102406.34;6178508;23;19958;-68
2022/12/01 05:30:53;;;;;;;;;;;;;;;-12.38;75.12;102403.44;6181508;23;19927;-68
2022/12/01 05:33:19;;;;;;;;;;;;;;;-12.34;75.06;102399.75;6170983;23;19920;-68
2022/12/01 05:35:46;;;;;;;;;;;;;;;-12.36;75.00;102404.25;6148776;23;19973;-68
2022/12/01 05:38:13;;;;;;;;;;;;;;;-12.40;75.06;102409.63;6188538;23;19924;-68
2022/12/01 05:40:39;;;;;;;;;;;;;;;-12.40;75.00;102396.44;6170003;23;19920;-65
2022/12/01 05:43:05;;;;;;;;;;;;;;;-12.39;75.07;102397.31;6146800;23;19920;-66
2022/12/01 05:45:31;;;;;;;;;;;;;;;-12.37;75.09;102406.03;6175167;23;20190;-65
2022/12/01 05:47:58;;;;;;;;;;;;;;;-12.36;74.79;102402.47;6184600;23;19951;-65
2022/12/01 05:50:25;;;;;;;;;;;;;;;-12.36;74.79;102404.25;6148190;23;19948;-68
2022/12/01 05:52:50;;;;;;;;;;;;;;;-12.29;75.00;102411.84;6174366;23;19921;-68
2022/12/01 05:55:20;;;;;;;;;;;;;;;-12.26;74.61;102413.50;6173327;23;19920;-68
2022/12/01 05:57:46;;;;;;;;;;;;;;;-12.22;74.37;102414.25;6184457;23;19920;-68
2022/12/01 06:00:12;;;;;;;;;;;;;;;-12.24;74.34;102414.31;6177006;23;20363;-68
2022/12/01 06:02:38;;;;;;;;;;;;;;;-12.29;74.30;102416.28;6185585;23;20359;-68
2022/12/01 06:05:05;;;;;;;;;;;;;;;-12.32;73.96;102416.41;6198543;23;19924;-68
2022/12/01 06:07:31;;;;;;;;;;;;;;;-12.35;74.40;102417.38;6174146;23;19924;-68
2022/12/01 06:09:59;;;;;;;;;;;;;;;-12.30;74.08;102427.75;6184304;23;19927;-68
2022/12/01 06:12:26;;;;;;;;;;;;;;;-12.25;74.45;102423.13;6174420;23;19920;-68
2022/12/01 06:14:52;;;;;;;;;;;;;;;-12.19;74.45;102420.25;6148777;23;19995;-68
2022/12/01 06:17:18;;;;;;;;;;;;;;;-12.14;74.22;102418.31;6140263;23;19944;-68
2022/12/01 06:19:44;;;;;;;;;;;;;;;-12.04;74.10;102429.34;6166781;23;20208;-68
2022/12/01 06:22:09;;;;;;;;;;;;;;;-11.96;74.10;102423.72;6166754;23;20014;-68
2022/12/01 06:24:35;;;;;;;;;;;;;;;-11.86;73.55;102422.41;6146816;23;19951;-66
2022/12/01 06:27:01;;;;;;;;;;;;;;;-11.84;73.55;102420.56;6186017;23;19920;-65
2022/12/01 06:29:28;;;;;;;;;;;;;;;-11.83;73.42;102426.69;6127826;23;19920;-66
2022/12/01 06:31:54;;;;;;;;;;;;;;;-11.73;73.61;102430.66;6161364;23;19927;-65
2022/12/01 06:34:19;;;;;;;;;;;;;;;-11.58;73.39;102434.44;6176322;23;19927;-66
2022/12/01 06:36:47;;;;;;;;;;;;;;;-11.50;73.21;102430.63;6151673;23;19931;-66
2022/12/01 06:39:14;;;;;;;;;;;;;;;-11.39;73.06;102431.03;6154167;23;20439;-65
2022/12/01 06:41:40;;;;;;;;;;;;;;;-11.27;72.67;102437.56;6190919;23;19920;-65
2022/12/01 06:44:05;;;;;;;;;;;;;;;-11.20;72.38;102440.78;6179483;23;19927;-65
2022/12/01 06:46:32;;;;;;;;;;;;;;;-11.26;72.55;102439.25;6180545;23;19963;-66
2022/12/01 06:48:58;;;;;;;;;;;;;;;-11.29;72.34;102440.25;6151592;23;19975;-66
2022/12/01 06:51:24;;;;;;;;;;;;;;;-11.25;72.64;102433.06;6187550;23;19920;-65
2022/12/01 06:53:51;;;;;;;;;;;;;;;-11.21;72.11;102428.50;6187622;23;19924;-66
2022/12/01 06:56:17;;;;;;;;;;;;;;;-11.19;71.91;102432.78;6190006;23;19924;-65
2022/12/01 06:58:43;;;;;;;;;;;;;;;-11.17;72.40;102432.72;6187844;23;19927;-65
2022/12/01 07:01:09;;;;;;;;;;;;;;;-11.01;72.24;102425.81;6188136;23;19920;-65
2022/12/01 07:03:36;;;;;;;;;;;;;;;-10.97;71.86;102423.91;6178625;23;19924;-65
2022/12/01 07:06:02;;;;;;;;;;;;;;;-10.94;71.82;102431.69;6180423;23;20032;-66
2022/12/01 07:08:29;;;;;;;;;;;;;;;-10.89;71.85;102434.97;6160791;23;19919;-65
2022/12/01 07:10:58;;;;;;;;;;;;;;;-10.85;71.77;102428.63;6180173;23;19924;-65
2022/12/01 07:13:24;;;;;;;;;;;;;;;-10.84;71.50;102421.53;6181373;23;20237;-65
2022/12/01 07:15:49;;;;;;;;;;;;;;;-10.80;71.20;102423.09;6180562;23;19920;-66
2022/12/01 07:18:15;;;;;;;;;;;;;;;-10.79;71.07;102427.47;6163518;23;20387;-66
2022/12/01 07:20:42;;;;;;;;;;;;;;;-10.79;71.22;102419.53;6149013;23;20374;-66
2022/12/01 07:23:08;;;;;;;;;;;;;;;-10.76;71.15;102421.19;6184714;23;20201;-66
2022/12/01 07:25:33;;;;;;;;;;;;;;;-10.75;71.17;102418.50;6151719;23;20096;-65
2022/12/01 07:27:59;;;;;;;;;;;;;;;-10.74;71.29;102412.28;6178695;23;19920;-65
2022/12/01 07:30:25;;;;;;;;;;;;;;;-10.71;71.17;102420.06;6187220;23;19927;-65
2022/12/01 07:32:50;;;;;;;;;;;;;;;-10.68;70.88;102427.84;6186979;23;19960;-66
2022/12/01 07:35:16;;;;;;;;;;;;;;;-10.61;71.01;102436.34;6178558;23;20252;-65
2022/12/01 07:37:43;;;;;;;;;;;;;;;-10.54;71.13;102440.41;6179439;23;19927;-66
2022/12/01 07:40:10;;;;;;;;;;;;;;;-10.49;70.83;102442.84;6177554;23;20336;-66
2022/12/01 07:42:35;;;;;;;;;;;;;;;-10.42;70.77;102439.00;6163826;23;20367;-65
2022/12/01 07:45:01;;;;;;;;;;;;;;;-10.42;70.44;102435.47;6153579;23;19939;-65
2022/12/01 07:47:27;;;;;;;;;;;;;;;-10.37;70.59;102436.09;6164054;23;20360;-66
2022/12/01 07:49:53;;;;;;;;;;;;;;;-10.23;70.62;102435.44;6184499;23;19927;-67
2022/12/01 07:52:19;;;;;;;;;;;;;;;-10.07;70.70;102435.53;6151642;23;19920;-66
2022/12/01 07:54:46;;;;;;;;;;;;;;;-10.00;70.38;102433.44;6179219;23;19944;-67
2022/12/01 07:57:13;;;;;;;;;;;;;;;-10.01;69.61;102431.72;6178668;23;19930;-65
2022/12/01 07:59:39;;;;;;;;;;;;;;;-10.05;69.92;102433.69;6178646;23;19927;-66
2022/12/01 08:02:05;;;;;;;;;;;;;;;-10.10;69.59;102433.03;6178067;23;19920;-66
2022/12/01 08:04:31;;;;;;;;;;;;;;;-10.24;69.59;102415.19;6153812;23;20027;-66
2022/12/01 08:06:56;;;;;;;;;;;;;;;-10.12;69.89;102446.38;6161820;23;20407;-66
2022/12/01 08:09:22;;;;;;;;;;;;;;;-10.08;69.90;102435.63;6128363;23;19920;-66
2022/12/01 08:11:49;;;;;;;;;;;;;;;-10.12;69.83;102435.78;6178542;23;19967;-65
2022/12/01 08:14:15;;;;;;;;;;;;;;;-10.07;69.53;102450.56;6175622;23;20035;-65
2022/12/01 08:16:41;;;;;;;;;;;;;;;-10.02;69.78;102446.78;6199856;23;20321;-65
2022/12/01 08:19:08;;;;;;;;;;;;;;;-9.86;69.69;102438.91;6151641;23;20367;-66
2022/12/01 08:21:36;;;;;;;;;;;;;;;-9.49;68.99;102435.38;6186508;23;19924;-66
2022/12/01 08:24:02;;;;;;;;;;;;;;;-8.94;67.85;102434.28;6160810;23;20437;-66
2022/12/01 08:26:28;;;;;;;;;;;;;;;-8.56;66.21;102433.97;6127576;23;19920;-66
2022/12/01 08:28:55;;;;;;;;;;;;;;;-8.12;65.38;102428.88;6160695;23;19920;-66
2022/12/01 08:31:22;;;;;;;;;;;;;;;-7.66;63.66;102422.69;6128366;23;19919;-66
2022/12/01 08:33:49;;;;;;;;;;;;;;;-7.37;62.45;102421.91;6178432;23;19990;-66
2022/12/01 08:36:16;;;;;;;;;;;;;;;-7.15;61.67;102416.16;6151327;23;19948;-66
2022/12/01 08:38:42;;;;;;;;;;;;;;;-6.93;61.14;102417.47;6200957;23;19920;-66
2022/12/01 08:41:08;;;;;;;;;;;;;;;-6.76;60.61;102417.28;6149648;23;20393;-66
2022/12/01 08:43:38;;;;;;;;;;;;;;;-6.70;59.91;102416.03;6175186;23;19920;-66
2022/12/01 08:46:06;;;;;;;;;;;;;;;-6.81;59.72;102421.16;6177701;23;19963;-66
2022/12/01 08:48:32;;;;;;;;;;;;;;;-6.86;59.69;102418.81;6188141;23;20272;-66
2022/12/01 08:51:02;;;;;;;;;;;;;;;-6.93;59.57;102418.34;6187711;23;20007;-66
2022/12/01 08:53:28;;;;;;;;;;;;;;;-7.08;59.94;102413.97;6159587;23;19920;-67
2022/12/01 08:55:54;;;;;;;;;;;;;;;-7.20;60.11;102420.88;6150837;23;19951;-67
2022/12/01 08:58:20;;;;;;;;;;;;;;;-6.74;60.18;102412.69;6185343;23;19920;-66
2022/12/01 09:00:45;;;;;;;;;;;;;;;-5.56;58.22;102409.50;6149738;23;20011;-66
2022/12/01 09:03:12;;;;;;;;;;;;;;;-4.70;55.41;102410.66;6178561;23;19927;-67
2022/12/01 09:05:38;;;;;;;;;;;;;;;-4.33;54.16;102403.63;6187907;23;19920;-66
2022/12/01 09:08:49;;;;;;;;;;;;;;;-4.20;53.70;102406.25;6149595;23;19927;-66
2022/12/01 09:10:50;;;;;;;;;;;;;;;-4.50;54.13;102403.03;6166114;23;20380;-68
2022/12/01 09:13:16;;;;;;;;;;;;;;;-4.86;55.17;102396.69;6150830;23;19920;-66
2022/12/01 09:15:42;;;;;;;;;;;;;;;-5.36;56.00;102400.16;6185536;23;19927;-67
2022/12/01 09:18:07;;;;;;;;;;;;;;;-5.98;56.96;102402.50;6188107;23;19920;-66
2022/12/01 09:20:34;;;;;;;;;;;;;;;-6.54;58.38;102402.63;6126364;23;19943;-66
2022/12/01 09:23:09;;;;;;;;;;;;;;;-7.06;59.79;102402.28;5122945;27;20026;-67
2022/12/01 09:25:34;;;;;;;;;;;;;;;-7.29;61.12;102404.56;5124233;27;19927;-67
2022/12/01 09:28:00;;;;;;;;;;;;;;;-7.43;61.75;102402.72;5123977;27;19996;-67
2022/12/01 09:30:26;;;;;;;;;;;;;;;-7.51;62.02;102393.47;5124256;28;20505;-67
2022/12/01 09:32:51;;;;;;;;;;;;;;;-7.57;62.37;102397.38;5122653;27;19963;-66
2022/12/01 09:35:17;;;;;;;;;;;;;;;-7.62;62.78;102384.38;5120569;28;20030;-67
2022/12/01 09:37:43;;;;;;;;;;;;;;;-7.49;63.14;102388.94;5104656;28;20318;-67
2022/12/01 09:40:12;;;;;;;;;;;;;;;-7.22;63.11;102390.88;5090955;28;19974;-67
2022/12/01 09:42:39;;;;;;;;;;;;;;;-6.89;62.14;102384.41;5094324;28;19951;-67
2022/12/01 09:45:06;;;;;;;;;;;;;;;-6.88;61.52;102388.75;5101905;28;19928;-67
2022/12/01 09:47:33;;;;;;;;;;;;;;;-7.01;61.50;102388.69;5103513;28;19927;-67
2022/12/01 09:50:01;;;;;;;;;;;;;;;-7.17;61.93;102388.81;5106538;28;20380;-67
2022/12/01 09:52:32;;;;;;;;;;;;;;;-7.12;62.26;102392.03;5118910;27;19935;-67
2022/12/01 09:54:59;;;;;;;;;;;;;;;-7.20;62.22;102387.16;5102818;28;19973;-67
2022/12/01 09:57:28;;;;;;;;;;;;;;;-7.31;62.27;102389.63;5104013;28;20405;-67
2022/12/01 09:59:54;;;;;;;;;;;;;;;-7.39;62.81;102394.56;5101422;28;20380;-67
2022/12/01 10:02:26;;;;;;;;;;;;;;;-7.48;62.68;102402.13;5104392;28;20391;-66
2022/12/01 10:04:54;;;;;;;;;;;;;;;-7.57;62.65;102400.88;5083286;28;20072;-67
2022/12/01 10:07:23;;;;;;;;;;;;;;;-7.62;62.97;102392.34;5080236;28;19990;-66
2022/12/01 10:09:51;;;;;;;;;;;;;;;-7.61;63.34;102394.06;5081970;28;19936;-67
2022/12/01 10:12:18;;;;;;;;;;;;;;;-7.66;63.41;102393.44;5081300;28;20466;-66
2022/12/01 10:14:46;;;;;;;;;;;;;;;-7.60;63.43;102387.78;5107638;28;20395;-67
2022/12/01 10:17:20;;;;;;;;;;;;;;;-7.26;63.58;102390.19;5101305;28;19970;-67
2022/12/01 10:19:51;;;;;;;;;;;;;;;-6.02;62.32;102400.16;5100413;28;19928;-67
2022/12/01 10:22:38;;;;;;;;;;;;;;;-4.52;58.07;102398.78;5101987;28;19935;-67
2022/12/01 10:25:09;;;;;;;;;;;;;;;-3.73;55.07;102395.66;5101195;28;20005;-68
2022/12/01 10:27:42;;;;;;;;;;;;;;;-3.75;54.52;102385.06;5083261;28;19951;-67
2022/12/01 10:30:12;;;;;;;;;;;;;;;-3.75;54.44;102379.72;5082284;28;20304;-67
2022/12/01 10:32:44;;;;;;;;;;;;;;;-3.26;54.21;102376.88;5080181;28;19935;-67
2022/12/01 10:35:14;;;;;;;;;;;;;;;-1.92;52.88;102372.38;5069863;28;19932;-67
2022/12/01 10:37:40;;;;;;;;;;;;;;;-0.89;51.09;102369.03;5087497;28;19932;-67
2022/12/01 10:40:10;;;;;;;;;;;;;;;-0.76;49.24;102375.03;5096933;28;19928;-67
2022/12/01 10:42:38;;;;;;;;;;;;;;;-0.66;48.41;102371.50;5065885;28;20355;-67
2022/12/01 10:45:06;;;;;;;;;;;;;;;-0.34;47.58;102370.44;5097993;28;20366;-67
2022/12/01 10:47:33;;;;;;;;;;;;;;;0.06;46.65;102364.09;5100105;27;19932;-67
2022/12/01 10:49:59;;;;;;;;;;;;;;;0.79;47.80;102368.09;5091393;28;19928;-68
2022/12/01 10:52:33;;;;;;;;;;;;;;;1.21;47.12;102361.38;5089343;28;19967;-67
2022/12/01 10:54:59;;;;;;;;;;;;;;;1.18;45.58;102361.69;5107466;28;19927;-68
2022/12/01 10:57:25;;;;;;;;;;;;;;;0.40;46.44;102369.03;5107467;28;20042;-67
2022/12/01 10:59:53;;;;;;;;;;;;;;;-0.73;48.94;102369.38;5107702;28;20404;-68
2022/12/01 11:02:20;;;;;;;;;;;;;;;-1.73;50.25;102377.06;5109031;27;20402;-67
2022/12/01 11:04:50;;;;;;;;;;;;;;;-2.80;52.01;102372.41;5110287;28;19932;-68
2022/12/01 11:07:18;;;;;;;;;;;;;;;-3.79;53.24;102372.03;5107693;28;19935;-67
2022/12/01 11:09:44;;;;;;;;;;;;;;;-4.47;55.22;102375.25;5107414;28;19934;-67
2022/12/01 11:12:13;;;;;;;;;;;;;;;-4.68;56.11;102375.84;5106554;28;19955;-67
2022/12/01 11:14:42;;;;;;;;;;;;;;;-4.74;56.79;102370.97;5107629;28;19928;-67
2022/12/01 11:17:28;;;;;;;;;;;;;;;-4.74;56.50;102377.13;5106723;28;19927;-67
2022/12/01 11:19:55;;;;;;;;;;;;;;;-4.86;56.29;102370.88;5072519;28;19928;-67
2022/12/01 11:22:23;;;;;;;;;;;;;;;-4.93;56.49;102369.59;5084252;28;19934;-67
2022/12/01 11:24:56;;;;;;;;;;;;;;;-4.75;56.35;102369.25;5101830;28;19928;-67
2022/12/01 11:27:23;;;;;;;;;;;;;;;-4.67;56.08;102361.53;5094600;28;19982;-67
2022/12/01 11:29:50;;;;;;;;;;;;;;;-5.07;56.62;102357.25;5089633;28;19935;-67
2022/12/01 11:32:19;;;;;;;;;;;;;;;-5.47;57.62;102352.03;5097419;28;19928;-67
2022/12/01 11:34:49;;;;;;;;;;;;;;;-5.68;58.41;102355.22;5065382;28;20381;-67
2022/12/01 11:37:18;;;;;;;;;;;;;;;-6.05;58.87;102357.75;5105974;28;20071;-70
2022/12/01 11:39:44;;;;;;;;;;;;;;;-6.40;59.50;102369.75;5088381;28;19927;-67
2022/12/01 11:42:16;;;;;;;;;;;;;;;-6.71;60.62;102371.75;5107359;28;19932;-67
2022/12/01 11:44:47;;;;;;;;;;;;;;;-6.96;61.25;102373.28;5106882;28;19927;-67
2022/12/01 11:47:13;;;;;;;;;;;;;;;-7.12;62.01;102376.06;5105246;28;19928;-67
2022/12/01 11:49:41;;;;;;;;;;;;;;;-7.27;62.32;102376.06;5104375;28;19927;-67
2022/12/01 11:52:16;;;;;;;;;;;;;;;-7.26;62.93;102382.22;5108223;28;20484;-67
2022/12/01 11:54:53;;;;;;;;;;;;;;;-7.21;62.88;102373.97;5108491;28;20067;-67
2022/12/01 11:57:21;;;;;;;;;;;;;;;-7.27;63.09;102384.03;5108150;28;19928;-67
2022/12/01 11:59:46;;;;;;;;;;;;;;;-7.27;62.85;102381.38;5105350;28;19932;-67
2022/12/01 12:02:21;;;;;;;;;;;;;;;-7.36;63.15;102373.09;5103830;28;20262;-67
2022/12/01 12:04:56;;;;;;;;;;;;;;;-7.58;63.64;102363.75;5095573;28;20161;-67
2022/12/01 12:07:27;;;;;;;;;;;;;;;-7.45;63.83;102375.38;5099056;28;19928;-67
2022/12/01 12:09:58;;;;;;;;;;;;;;;-7.43;63.84;102381.44;5087712;28;19928;-67
2022/12/01 12:12:33;;;;;;;;;;;;;;;-7.44;63.54;102369.09;5106408;28;19927;-66
2022/12/01 12:15:04;;;;;;;;;;;;;;;-7.57;63.90;102370.78;5103703;28;19989;-67
2022/12/01 12:17:38;;;;;;;;;;;;;;;-7.78;64.69;102362.31;5092719;28;19955;-66
2022/12/01 12:20:17;;;;;;;;;;;;;;;-7.86;64.84;102366.28;5085536;28;19977;-67
2022/12/01 12:22:47;;;;;;;;;;;;;;;-7.91;65.26;102372.81;5103152;28;19946;-66
2022/12/01 12:25:21;;;;;;;;;;;;;;;-8.07;65.34;102373.69;5097456;28;20030;-67
2022/12/01 12:27:50;;;;;;;;;;;;;;;-8.21;66.01;102376.28;5088304;28;19935;-66
2022/12/01 12:30:19;;;;;;;;;;;;;;;-8.36;66.49;102378.03;5091579;28;20399;-66
2022/12/01 12:33:07;;;;;;;;;;;;;;;-8.61;66.79;102361.72;5103802;28;20317;-66